Terminal Aerodrome Forecast
Issued by NWS Knoxville/Tri Cities, TN

Home | Current Version | Previous Version | Text Only | Print | Product List | Glossary On
Versions: 1 2 3 4 5 6 7 8 9 10 11 12 13 14 15 16 17 18 19 20 21 22 23 24 25 26 27 28 29 30 31 32 33 34 35 36 37 38
000
FTUS44 KMRX 181129
TAFCHA
TAF
KCHA 181129Z 1812/1912 32007KT P6SM SCT030 BKN045 OVC060
     FM181300 32005KT P6SM OVC035
     FM181500 36006KT P6SM BKN035
     FM181800 VRB04KT P6SM SCT050 BKN150
     FM190100 00000KT P6SM SCT050 BKN250
     FM190600 00000KT 5SM BR OVC100
     FM190900 00000KT P6SM OVC050=

USA.gov is the U.S. government's official web portal to all federal, state and local government web resources and services.